sensor_id;sensor_type;location;lat;lon;timestamp;P1;durP1;ratioP1;P2;durP2;ratioP2
840;SDS011;406;48.566;13.450;2023-05-09T00:00:52;17.47;;;14.67;;
840;SDS011;406;48.566;13.450;2023-05-09T00:03:18;18.03;;;14.17;;
840;SDS011;406;48.566;13.450;2023-05-09T00:05:45;19.70;;;14.33;;
840;SDS011;406;48.566;13.450;2023-05-09T00:08:12;16.77;;;13.60;;
840;SDS011;406;48.566;13.450;2023-05-09T00:10:38;19.00;;;15.23;;
840;SDS011;406;48.566;13.450;2023-05-09T00:13:05;18.00;;;13.87;;
840;SDS011;406;48.566;13.450;2023-05-09T00:15:32;17.67;;;14.90;;
840;SDS011;406;48.566;13.450;2023-05-09T00:17:58;18.20;;;13.83;;
840;SDS011;406;48.566;13.450;2023-05-09T00:20:25;16.73;;;14.93;;
840;SDS011;406;48.566;13.450;2023-05-09T00:22:51;16.10;;;13.53;;
840;SDS011;406;48.566;13.450;2023-05-09T00:25:18;16.60;;;13.30;;
840;SDS011;406;48.566;13.450;2023-05-09T00:27:44;17.23;;;12.70;;
840;SDS011;406;48.566;13.450;2023-05-09T00:30:11;14.47;;;11.00;;
840;SDS011;406;48.566;13.450;2023-05-09T00:32:38;20.50;;;13.27;;
840;SDS011;406;48.566;13.450;2023-05-09T00:35:07;13.67;;;11.07;;
840;SDS011;406;48.566;13.450;2023-05-09T00:37:34;15.97;;;11.77;;
840;SDS011;406;48.566;13.450;2023-05-09T00:40:01;12.20;;;10.90;;
840;SDS011;406;48.566;13.450;2023-05-09T00:42:28;14.40;;;10.67;;
840;SDS011;406;48.566;13.450;2023-05-09T00:44:55;12.40;;;10.43;;
840;SDS011;406;48.566;13.450;2023-05-09T00:47:21;14.93;;;12.47;;
840;SDS011;406;48.566;13.450;2023-05-09T00:49:49;13.13;;;10.27;;
840;SDS011;406;48.566;13.450;2023-05-09T00:52:15;14.53;;;9.20;;
840;SDS011;406;48.566;13.450;2023-05-09T00:54:42;14.13;;;11.20;;
840;SDS011;406;48.566;13.450;2023-05-09T00:57:09;12.80;;;9.97;;
840;SDS011;406;48.566;13.450;2023-05-09T00:59:36;17.43;;;13.10;;
840;SDS011;406;48.566;13.450;2023-05-09T01:02:02;13.23;;;10.53;;
840;SDS011;406;48.566;13.450;2023-05-09T01:04:29;13.57;;;10.37;;
840;SDS011;406;48.566;13.450;2023-05-09T01:07:09;12.53;;;9.37;;
840;SDS011;406;48.566;13.450;2023-05-09T01:09:51;13.10;;;10.30;;
840;SDS011;406;48.566;13.450;2023-05-09T01:12:30;13.60;;;10.13;;
840;SDS011;406;48.566;13.450;2023-05-09T01:15:11;12.27;;;9.37;;
840;SDS011;406;48.566;13.450;2023-05-09T01:18:02;8.60;;;7.67;;
840;SDS011;406;48.566;13.450;2023-05-09T01:20:37;13.43;;;9.53;;
840;SDS011;406;48.566;13.450;2023-05-09T01:25:48;14.10;;;8.80;;
840;SDS011;406;48.566;13.450;2023-05-09T01:28:55;9.40;;;7.20;;
840;SDS011;406;48.566;13.450;2023-05-09T01:31:33;9.60;;;8.20;;
840;SDS011;406;48.566;13.450;2023-05-09T01:34:01;11.47;;;7.70;;
840;SDS011;406;48.566;13.450;2023-05-09T01:36:29;9.20;;;7.60;;
840;SDS011;406;48.566;13.450;2023-05-09T01:38:55;9.20;;;7.07;;
840;SDS011;406;48.566;13.450;2023-05-09T01:41:23;9.47;;;6.80;;
840;SDS011;406;48.566;13.450;2023-05-09T01:43:54;7.87;;;6.70;;
840;SDS011;406;48.566;13.450;2023-05-09T01:46:21;10.60;;;7.33;;
840;SDS011;406;48.566;13.450;2023-05-09T01:48:49;7.07;;;6.33;;
840;SDS011;406;48.566;13.450;2023-05-09T01:51:15;11.70;;;7.27;;
840;SDS011;406;48.566;13.450;2023-05-09T01:53:43;11.10;;;7.83;;
840;SDS011;406;48.566;13.450;2023-05-09T01:56:10;9.70;;;7.93;;
840;SDS011;406;48.566;13.450;2023-05-09T01:58:37;9.50;;;8.33;;
840;SDS011;406;48.566;13.450;2023-05-09T02:01:04;8.80;;;7.90;;
840;SDS011;406;48.566;13.450;2023-05-09T02:03:31;7.10;;;6.40;;
840;SDS011;406;48.566;13.450;2023-05-09T02:06:00;11.10;;;7.90;;
840;SDS011;406;48.566;13.450;2023-05-09T02:08:28;11.00;;;7.10;;
840;SDS011;406;48.566;13.450;2023-05-09T02:10:54;8.83;;;7.03;;
840;SDS011;406;48.566;13.450;2023-05-09T02:13:21;6.93;;;6.13;;
840;SDS011;406;48.566;13.450;2023-05-09T02:15:48;8.53;;;6.63;;
840;SDS011;406;48.566;13.450;2023-05-09T02:18:15;7.30;;;6.13;;
840;SDS011;406;48.566;13.450;2023-05-09T02:20:42;8.70;;;5.70;;
840;SDS011;406;48.566;13.450;2023-05-09T02:23:09;10.47;;;5.43;;
840;SDS011;406;48.566;13.450;2023-05-09T02:25:36;8.27;;;5.30;;
840;SDS011;406;48.566;13.450;2023-05-09T02:28:04;6.50;;;5.00;;
840;SDS011;406;48.566;13.450;2023-05-09T02:30:32;7.17;;;5.13;;
840;SDS011;406;48.566;13.450;2023-05-09T02:33:02;7.33;;;5.00;;
840;SDS011;406;48.566;13.450;2023-05-09T02:35:31;6.83;;;5.00;;
840;SDS011;406;48.566;13.450;2023-05-09T02:37:58;8.30;;;5.10;;
840;SDS011;406;48.566;13.450;2023-05-09T02:40:27;7.47;;;5.00;;
840;SDS011;406;48.566;13.450;2023-05-09T02:42:55;6.37;;;5.20;;
840;SDS011;406;48.566;13.450;2023-05-09T02:45:22;5.10;;;4.37;;
840;SDS011;406;48.566;13.450;2023-05-09T02:47:48;5.23;;;4.73;;
840;SDS011;406;48.566;13.450;2023-05-09T02:50:15;5.67;;;4.87;;
840;SDS011;406;48.566;13.450;2023-05-09T02:52:42;5.80;;;4.97;;
840;SDS011;406;48.566;13.450;2023-05-09T02:55:08;8.53;;;5.50;;
840;SDS011;406;48.566;13.450;2023-05-09T02:57:38;5.70;;;4.83;;
840;SDS011;406;48.566;13.450;2023-05-09T03:00:04;6.30;;;5.30;;
840;SDS011;406;48.566;13.450;2023-05-09T03:02:35;6.30;;;5.07;;
840;SDS011;406;48.566;13.450;2023-05-09T03:05:04;5.40;;;4.77;;
840;SDS011;406;48.566;13.450;2023-05-09T03:07:33;7.53;;;5.60;;
840;SDS011;406;48.566;13.450;2023-05-09T03:10:00;7.47;;;5.23;;
840;SDS011;406;48.566;13.450;2023-05-09T03:12:28;9.50;;;5.67;;
840;SDS011;406;48.566;13.450;2023-05-09T03:14:55;8.43;;;4.90;;
840;SDS011;406;48.566;13.450;2023-05-09T03:17:21;5.43;;;4.80;;
840;SDS011;406;48.566;13.450;2023-05-09T03:19:48;8.10;;;6.23;;
840;SDS011;406;48.566;13.450;2023-05-09T03:22:15;7.07;;;5.10;;
840;SDS011;406;48.566;13.450;2023-05-09T03:24:52;6.60;;;5.70;;
840;SDS011;406;48.566;13.450;2023-05-09T03:27:18;8.20;;;5.63;;
840;SDS011;406;48.566;13.450;2023-05-09T03:29:46;6.30;;;5.13;;
840;SDS011;406;48.566;13.450;2023-05-09T03:32:14;8.10;;;5.37;;
840;SDS011;406;48.566;13.450;2023-05-09T03:34:41;6.90;;;5.37;;
840;SDS011;406;48.566;13.450;2023-05-09T03:37:09;8.60;;;5.37;;
840;SDS011;406;48.566;13.450;2023-05-09T03:39:38;7.50;;;6.03;;
840;SDS011;406;48.566;13.450;2023-05-09T03:42:05;9.10;;;5.80;;
840;SDS011;406;48.566;13.450;2023-05-09T03:44:32;8.30;;;5.40;;
840;SDS011;406;48.566;13.450;2023-05-09T03:46:58;9.10;;;6.63;;
840;SDS011;406;48.566;13.450;2023-05-09T03:49:32;6.70;;;5.50;;
840;SDS011;406;48.566;13.450;2023-05-09T03:51:59;10.47;;;6.43;;
840;SDS011;406;48.566;13.450;2023-05-09T03:54:25;8.27;;;5.93;;
840;SDS011;406;48.566;13.450;2023-05-09T03:56:54;9.77;;;6.27;;
840;SDS011;406;48.566;13.450;2023-05-09T03:59:21;7.63;;;5.87;;
840;SDS011;406;48.566;13.450;2023-05-09T04:01:48;12.77;;;5.10;;
840;SDS011;406;48.566;13.450;2023-05-09T04:04:16;6.40;;;5.20;;
840;SDS011;406;48.566;13.450;2023-05-09T04:06:43;5.63;;;4.83;;
840;SDS011;406;48.566;13.450;2023-05-09T04:09:10;8.20;;;5.27;;
840;SDS011;406;48.566;13.450;2023-05-09T04:11:39;7.47;;;5.20;;
840;SDS011;406;48.566;13.450;2023-05-09T04:14:09;7.53;;;5.30;;
840;SDS011;406;48.566;13.450;2023-05-09T04:16:36;6.67;;;5.97;;
840;SDS011;406;48.566;13.450;2023-05-09T04:19:02;11.33;;;5.60;;
840;SDS011;406;48.566;13.450;2023-05-09T04:21:30;9.27;;;5.93;;
840;SDS011;406;48.566;13.450;2023-05-09T04:23:59;7.53;;;5.60;;
840;SDS011;406;48.566;13.450;2023-05-09T04:26:38;10.70;;;6.00;;
840;SDS011;406;48.566;13.450;2023-05-09T04:29:08;7.67;;;5.63;;
840;SDS011;406;48.566;13.450;2023-05-09T04:31:37;6.40;;;5.70;;
840;SDS011;406;48.566;13.450;2023-05-09T04:34:05;6.63;;;5.77;;
840;SDS011;406;48.566;13.450;2023-05-09T04:36:35;7.77;;;6.37;;
840;SDS011;406;48.566;13.450;2023-05-09T04:39:02;6.43;;;5.20;;
840;SDS011;406;48.566;13.450;2023-05-09T04:41:32;7.37;;;5.80;;
840;SDS011;406;48.566;13.450;2023-05-09T04:43:59;10.87;;;5.30;;
840;SDS011;406;48.566;13.450;2023-05-09T04:46:26;8.00;;;5.70;;
840;SDS011;406;48.566;13.450;2023-05-09T04:48:53;8.87;;;7.17;;
840;SDS011;406;48.566;13.450;2023-05-09T04:51:19;8.60;;;6.30;;
840;SDS011;406;48.566;13.450;2023-05-09T04:53:46;10.17;;;6.10;;
840;SDS011;406;48.566;13.450;2023-05-09T04:56:14;11.17;;;5.97;;
840;SDS011;406;48.566;13.450;2023-05-09T04:58:43;8.03;;;6.17;;
840;SDS011;406;48.566;13.450;2023-05-09T05:01:10;6.90;;;5.07;;
840;SDS011;406;48.566;13.450;2023-05-09T05:03:38;7.67;;;5.70;;
840;SDS011;406;48.566;13.450;2023-05-09T05:06:04;7.33;;;5.47;;
840;SDS011;406;48.566;13.450;2023-05-09T05:08:32;10.50;;;6.43;;
840;SDS011;406;48.566;13.450;2023-05-09T05:10:58;8.40;;;5.70;;
840;SDS011;406;48.566;13.450;2023-05-09T05:13:25;6.90;;;5.40;;
840;SDS011;406;48.566;13.450;2023-05-09T05:15:55;8.87;;;6.53;;
840;SDS011;406;48.566;13.450;2023-05-09T05:18:21;9.53;;;7.33;;
840;SDS011;406;48.566;13.450;2023-05-09T05:20:48;7.20;;;5.37;;
840;SDS011;406;48.566;13.450;2023-05-09T05:23:15;10.97;;;6.30;;
840;SDS011;406;48.566;13.450;2023-05-09T05:25:41;7.17;;;5.90;;
840;SDS011;406;48.566;13.450;2023-05-09T05:28:08;10.10;;;6.60;;
840;SDS011;406;48.566;13.450;2023-05-09T05:30:36;9.00;;;6.23;;
840;SDS011;406;48.566;13.450;2023-05-09T05:33:03;10.20;;;6.23;;
840;SDS011;406;48.566;13.450;2023-05-09T05:35:29;9.23;;;6.63;;
840;SDS011;406;48.566;13.450;2023-05-09T05:37:56;10.20;;;6.60;;
840;SDS011;406;48.566;13.450;2023-05-09T05:40:23;8.20;;;5.73;;
840;SDS011;406;48.566;13.450;2023-05-09T05:42:51;7.80;;;5.30;;
840;SDS011;406;48.566;13.450;2023-05-09T05:45:18;5.73;;;4.73;;
840;SDS011;406;48.566;13.450;2023-05-09T05:47:48;8.77;;;5.10;;
840;SDS011;406;48.566;13.450;2023-05-09T05:50:16;7.60;;;5.40;;
840;SDS011;406;48.566;13.450;2023-05-09T05:52:42;8.80;;;6.20;;
840;SDS011;406;48.566;13.450;2023-05-09T05:55:12;8.73;;;6.93;;
840;SDS011;406;48.566;13.450;2023-05-09T05:57:39;8.43;;;6.23;;
840;SDS011;406;48.566;13.450;2023-05-09T06:00:07;6.53;;;5.73;;
840;SDS011;406;48.566;13.450;2023-05-09T06:02:44;6.60;;;5.13;;
840;SDS011;406;48.566;13.450;2023-05-09T06:05:20;6.70;;;5.00;;
840;SDS011;406;48.566;13.450;2023-05-09T06:07:46;5.60;;;4.33;;
840;SDS011;406;48.566;13.450;2023-05-09T06:10:13;6.90;;;4.80;;
840;SDS011;406;48.566;13.450;2023-05-09T06:12:43;7.43;;;5.70;;
840;SDS011;406;48.566;13.450;2023-05-09T06:15:10;7.47;;;4.97;;
840;SDS011;406;48.566;13.450;2023-05-09T06:17:40;7.03;;;4.93;;
840;SDS011;406;48.566;13.450;2023-05-09T06:20:07;7.13;;;5.10;;
840;SDS011;406;48.566;13.450;2023-05-09T06:22:33;5.43;;;4.73;;
840;SDS011;406;48.566;13.450;2023-05-09T06:25:01;9.37;;;5.17;;
840;SDS011;406;48.566;13.450;2023-05-09T06:27:27;5.80;;;4.93;;
840;SDS011;406;48.566;13.450;2023-05-09T06:29:54;7.20;;;4.80;;
840;SDS011;406;48.566;13.450;2023-05-09T06:32:20;8.40;;;6.07;;
840;SDS011;406;48.566;13.450;2023-05-09T06:34:47;6.43;;;5.00;;
840;SDS011;406;48.566;13.450;2023-05-09T06:37:13;7.10;;;4.93;;
840;SDS011;406;48.566;13.450;2023-05-09T06:39:40;5.40;;;4.90;;
840;SDS011;406;48.566;13.450;2023-05-09T06:42:06;6.13;;;5.57;;
840;SDS011;406;48.566;13.450;2023-05-09T06:44:36;9.13;;;5.00;;
840;SDS011;406;48.566;13.450;2023-05-09T06:47:03;5.63;;;5.03;;
840;SDS011;406;48.566;13.450;2023-05-09T06:49:29;6.87;;;5.60;;
840;SDS011;406;48.566;13.450;2023-05-09T06:51:56;6.83;;;5.77;;
840;SDS011;406;48.566;13.450;2023-05-09T06:54:23;8.60;;;6.53;;
840;SDS011;406;48.566;13.450;2023-05-09T06:56:51;9.40;;;5.10;;
840;SDS011;406;48.566;13.450;2023-05-09T06:59:18;11.10;;;5.80;;
840;SDS011;406;48.566;13.450;2023-05-09T07:01:45;5.77;;;5.17;;
840;SDS011;406;48.566;13.450;2023-05-09T07:04:12;9.47;;;5.53;;
840;SDS011;406;48.566;13.450;2023-05-09T07:06:38;8.07;;;5.30;;
840;SDS011;406;48.566;13.450;2023-05-09T07:09:05;6.83;;;5.70;;
840;SDS011;406;48.566;13.450;2023-05-09T07:11:34;6.77;;;5.80;;
840;SDS011;406;48.566;13.450;2023-05-09T07:14:02;8.57;;;6.10;;
840;SDS011;406;48.566;13.450;2023-05-09T07:16:28;6.40;;;5.67;;
840;SDS011;406;48.566;13.450;2023-05-09T07:18:55;7.70;;;6.27;;
840;SDS011;406;48.566;13.450;2023-05-09T07:21:22;6.07;;;5.47;;
840;SDS011;406;48.566;13.450;2023-05-09T07:23:48;7.40;;;6.60;;
840;SDS011;406;48.566;13.450;2023-05-09T07:26:15;8.80;;;7.37;;
840;SDS011;406;48.566;13.450;2023-05-09T07:28:41;8.00;;;6.40;;
840;SDS011;406;48.566;13.450;2023-05-09T07:31:08;7.50;;;6.27;;
840;SDS011;406;48.566;13.450;2023-05-09T07:33:34;7.50;;;6.00;;
840;SDS011;406;48.566;13.450;2023-05-09T07:36:01;7.73;;;6.60;;
840;SDS011;406;48.566;13.450;2023-05-09T07:38:28;7.90;;;7.13;;
840;SDS011;406;48.566;13.450;2023-05-09T07:40:54;17.00;;;7.00;;
840;SDS011;406;48.566;13.450;2023-05-09T07:43:21;8.87;;;6.37;;
840;SDS011;406;48.566;13.450;2023-05-09T07:45:47;8.13;;;6.23;;
840;SDS011;406;48.566;13.450;2023-05-09T07:48:14;7.10;;;6.20;;
840;SDS011;406;48.566;13.450;2023-05-09T07:50:40;7.20;;;6.00;;
840;SDS011;406;48.566;13.450;2023-05-09T07:53:07;7.50;;;6.57;;
840;SDS011;406;48.566;13.450;2023-05-09T07:55:33;10.27;;;6.60;;
840;SDS011;406;48.566;13.450;2023-05-09T07:58:00;6.33;;;5.67;;
840;SDS011;406;48.566;13.450;2023-05-09T08:00:26;6.67;;;5.60;;
840;SDS011;406;48.566;13.450;2023-05-09T08:02:53;6.10;;;5.50;;
840;SDS011;406;48.566;13.450;2023-05-09T08:05:20;7.10;;;6.10;;
840;SDS011;406;48.566;13.450;2023-05-09T08:07:46;7.00;;;6.37;;
840;SDS011;406;48.566;13.450;2023-05-09T08:10:13;6.80;;;5.03;;
840;SDS011;406;48.566;13.450;2023-05-09T08:12:39;7.10;;;5.97;;
840;SDS011;406;48.566;13.450;2023-05-09T08:15:06;6.10;;;5.47;;
840;SDS011;406;48.566;13.450;2023-05-09T08:17:33;8.67;;;6.53;;
840;SDS011;406;48.566;13.450;2023-05-09T08:20:00;6.37;;;5.40;;
840;SDS011;406;48.566;13.450;2023-05-09T08:22:26;5.93;;;5.33;;
840;SDS011;406;48.566;13.450;2023-05-09T08:24:53;7.00;;;5.73;;
840;SDS011;406;48.566;13.450;2023-05-09T08:27:19;5.63;;;4.90;;
840;SDS011;406;48.566;13.450;2023-05-09T08:29:46;7.37;;;6.67;;
840;SDS011;406;48.566;13.450;2023-05-09T08:32:12;7.83;;;6.20;;
840;SDS011;406;48.566;13.450;2023-05-09T08:34:39;9.33;;;5.60;;
840;SDS011;406;48.566;13.450;2023-05-09T08:37:06;8.37;;;5.70;;
840;SDS011;406;48.566;13.450;2023-05-09T08:39:32;6.03;;;4.97;;
840;SDS011;406;48.566;13.450;2023-05-09T08:42:00;5.50;;;4.77;;
840;SDS011;406;48.566;13.450;2023-05-09T08:44:28;7.00;;;5.10;;
840;SDS011;406;48.566;13.450;2023-05-09T08:46:57;14.63;;;7.27;;
840;SDS011;406;48.566;13.450;2023-05-09T08:49:25;6.70;;;5.47;;
840;SDS011;406;48.566;13.450;2023-05-09T08:51:51;6.60;;;4.40;;
840;SDS011;406;48.566;13.450;2023-05-09T08:54:18;5.70;;;5.20;;
840;SDS011;406;48.566;13.450;2023-05-09T08:56:48;6.70;;;5.00;;
840;SDS011;406;48.566;13.450;2023-05-09T08:59:16;6.73;;;5.27;;
840;SDS011;406;48.566;13.450;2023-05-09T09:01:43;6.37;;;4.83;;
840;SDS011;406;48.566;13.450;2023-05-09T09:04:09;5.80;;;5.17;;
840;SDS011;406;48.566;13.450;2023-05-09T09:06:39;5.77;;;4.57;;
840;SDS011;406;48.566;13.450;2023-05-09T09:09:06;6.50;;;5.20;;
840;SDS011;406;48.566;13.450;2023-05-09T09:11:34;5.90;;;4.53;;
840;SDS011;406;48.566;13.450;2023-05-09T09:14:05;6.93;;;5.40;;
840;SDS011;406;48.566;13.450;2023-05-09T09:16:32;6.07;;;5.13;;
840;SDS011;406;48.566;13.450;2023-05-09T09:19:01;6.57;;;4.23;;
840;SDS011;406;48.566;13.450;2023-05-09T09:21:28;5.07;;;4.57;;
840;SDS011;406;48.566;13.450;2023-05-09T09:23:57;5.03;;;4.53;;
840;SDS011;406;48.566;13.450;2023-05-09T09:26:23;5.23;;;4.73;;
840;SDS011;406;48.566;13.450;2023-05-09T09:28:54;5.63;;;4.43;;
840;SDS011;406;48.566;13.450;2023-05-09T09:31:23;5.17;;;4.40;;
840;SDS011;406;48.566;13.450;2023-05-09T09:33:50;4.40;;;4.00;;
840;SDS011;406;48.566;13.450;2023-05-09T09:36:27;4.60;;;4.17;;
840;SDS011;406;48.566;13.450;2023-05-09T09:38:55;8.20;;;5.67;;
840;SDS011;406;48.566;13.450;2023-05-09T09:41:30;6.13;;;5.53;;
840;SDS011;406;48.566;13.450;2023-05-09T09:43:57;6.23;;;5.60;;
840;SDS011;406;48.566;13.450;2023-05-09T09:46:24;5.90;;;5.00;;
840;SDS011;406;48.566;13.450;2023-05-09T09:48:51;6.40;;;5.80;;
840;SDS011;406;48.566;13.450;2023-05-09T09:51:21;8.57;;;6.40;;
840;SDS011;406;48.566;13.450;2023-05-09T09:53:52;6.70;;;5.20;;
840;SDS011;406;48.566;13.450;2023-05-09T09:56:23;5.67;;;5.10;;
840;SDS011;406;48.566;13.450;2023-05-09T09:59:11;6.10;;;5.40;;
840;SDS011;406;48.566;13.450;2023-05-09T10:04:33;5.80;;;4.80;;
840;SDS011;406;48.566;13.450;2023-05-09T10:07:03;6.60;;;5.20;;
840;SDS011;406;48.566;13.450;2023-05-09T10:09:32;5.73;;;4.87;;
840;SDS011;406;48.566;13.450;2023-05-09T10:12:03;6.73;;;5.40;;
840;SDS011;406;48.566;13.450;2023-05-09T10:14:31;7.00;;;5.40;;
840;SDS011;406;48.566;13.450;2023-05-09T10:17:01;5.60;;;5.07;;
840;SDS011;406;48.566;13.450;2023-05-09T10:19:32;5.30;;;4.33;;
840;SDS011;406;48.566;13.450;2023-05-09T10:22:04;6.90;;;6.20;;
840;SDS011;406;48.566;13.450;2023-05-09T10:24:46;6.97;;;6.07;;
840;SDS011;406;48.566;13.450;2023-05-09T10:27:17;8.40;;;5.13;;
840;SDS011;406;48.566;13.450;2023-05-09T10:29:55;6.97;;;5.30;;
840;SDS011;406;48.566;13.450;2023-05-09T10:32:27;6.97;;;5.43;;
840;SDS011;406;48.566;13.450;2023-05-09T10:34:59;5.50;;;5.00;;
840;SDS011;406;48.566;13.450;2023-05-09T10:37:30;5.57;;;5.07;;
840;SDS011;406;48.566;13.450;2023-05-09T10:39:59;4.90;;;4.37;;
840;SDS011;406;48.566;13.450;2023-05-09T10:42:26;5.43;;;4.83;;
840;SDS011;406;48.566;13.450;2023-05-09T10:44:54;6.03;;;5.43;;
840;SDS011;406;48.566;13.450;2023-05-09T10:47:21;5.90;;;5.07;;
840;SDS011;406;48.566;13.450;2023-05-09T10:49:49;5.17;;;4.50;;
840;SDS011;406;48.566;13.450;2023-05-09T10:52:16;5.50;;;4.90;;
840;SDS011;406;48.566;13.450;2023-05-09T10:54:43;5.80;;;4.40;;
840;SDS011;406;48.566;13.450;2023-05-09T10:57:10;6.43;;;4.60;;
840;SDS011;406;48.566;13.450;2023-05-09T10:59:39;8.03;;;5.67;;
840;SDS011;406;48.566;13.450;2023-05-09T11:02:11;5.10;;;4.60;;
840;SDS011;406;48.566;13.450;2023-05-09T11:04:39;4.80;;;4.40;;
840;SDS011;406;48.566;13.450;2023-05-09T11:07:21;7.00;;;5.00;;
840;SDS011;406;48.566;13.450;2023-05-09T11:10:05;6.47;;;5.60;;
840;SDS011;406;48.566;13.450;2023-05-09T11:12:33;5.50;;;5.00;;
840;SDS011;406;48.566;13.450;2023-05-09T11:15:03;4.90;;;4.47;;
840;SDS011;406;48.566;13.450;2023-05-09T11:17:31;5.50;;;4.87;;
840;SDS011;406;48.566;13.450;2023-05-09T11:19:58;6.33;;;4.30;;
840;SDS011;406;48.566;13.450;2023-05-09T11:22:27;5.60;;;4.73;;
840;SDS011;406;48.566;13.450;2023-05-09T11:25:00;5.27;;;4.40;;
840;SDS011;406;48.566;13.450;2023-05-09T11:27:51;5.00;;;4.60;;
840;SDS011;406;48.566;13.450;2023-05-09T11:30:18;5.33;;;4.83;;
840;SDS011;406;48.566;13.450;2023-05-09T11:32:46;6.20;;;5.60;;
840;SDS011;406;48.566;13.450;2023-05-09T11:35:17;6.37;;;4.83;;
840;SDS011;406;48.566;13.450;2023-05-09T11:37:50;5.47;;;4.97;;
840;SDS011;406;48.566;13.450;2023-05-09T11:40:30;6.07;;;4.53;;
840;SDS011;406;48.566;13.450;2023-05-09T11:42:58;5.37;;;4.87;;
840;SDS011;406;48.566;13.450;2023-05-09T11:45:27;4.73;;;4.33;;
840;SDS011;406;48.566;13.450;2023-05-09T11:47:55;6.57;;;5.77;;
840;SDS011;406;48.566;13.450;2023-05-09T11:50:24;6.90;;;4.70;;
840;SDS011;406;48.566;13.450;2023-05-09T11:52:51;4.93;;;4.33;;
840;SDS011;406;48.566;13.450;2023-05-09T11:55:19;5.10;;;4.60;;
840;SDS011;406;48.566;13.450;2023-05-09T11:57:51;5.83;;;4.53;;
840;SDS011;406;48.566;13.450;2023-05-09T12:00:20;4.80;;;4.00;;
840;SDS011;406;48.566;13.450;2023-05-09T12:02:48;3.80;;;3.50;;
840;SDS011;406;48.566;13.450;2023-05-09T12:05:16;5.87;;;4.13;;
840;SDS011;406;48.566;13.450;2023-05-09T12:07:44;5.73;;;3.30;;
840;SDS011;406;48.566;13.450;2023-05-09T12:10:12;3.83;;;3.47;;
840;SDS011;406;48.566;13.450;2023-05-09T12:12:45;4.37;;;3.97;;
840;SDS011;406;48.566;13.450;2023-05-09T12:15:12;3.60;;;3.17;;
840;SDS011;406;48.566;13.450;2023-05-09T12:17:40;5.00;;;3.70;;
840;SDS011;406;48.566;13.450;2023-05-09T12:20:08;4.33;;;3.93;;
840;SDS011;406;48.566;13.450;2023-05-09T12:22:35;5.53;;;3.50;;
840;SDS011;406;48.566;13.450;2023-05-09T12:25:06;3.93;;;3.53;;
840;SDS011;406;48.566;13.450;2023-05-09T12:27:35;4.10;;;3.60;;
840;SDS011;406;48.566;13.450;2023-05-09T12:30:06;4.57;;;3.40;;
840;SDS011;406;48.566;13.450;2023-05-09T12:32:35;5.20;;;4.17;;
840;SDS011;406;48.566;13.450;2023-05-09T12:35:07;4.40;;;4.00;;
840;SDS011;406;48.566;13.450;2023-05-09T12:37:35;4.83;;;4.43;;
840;SDS011;406;48.566;13.450;2023-05-09T12:40:08;5.77;;;4.27;;
840;SDS011;406;48.566;13.450;2023-05-09T12:42:38;3.80;;;3.50;;
840;SDS011;406;48.566;13.450;2023-05-09T12:45:06;4.90;;;4.40;;
840;SDS011;406;48.566;13.450;2023-05-09T12:47:33;5.20;;;3.83;;
840;SDS011;406;48.566;13.450;2023-05-09T12:50:01;6.60;;;4.37;;
840;SDS011;406;48.566;13.450;2023-05-09T12:52:32;4.70;;;3.80;;
840;SDS011;406;48.566;13.450;2023-05-09T12:55:06;5.30;;;4.07;;
840;SDS011;406;48.566;13.450;2023-05-09T12:57:34;4.40;;;4.00;;
840;SDS011;406;48.566;13.450;2023-05-09T13:00:02;4.93;;;4.37;;
840;SDS011;406;48.566;13.450;2023-05-09T13:02:34;6.63;;;4.37;;
840;SDS011;406;48.566;13.450;2023-05-09T13:10:13;4.33;;;3.93;;
840;SDS011;406;48.566;13.450;2023-05-09T13:12:46;5.63;;;4.20;;
840;SDS011;406;48.566;13.450;2023-05-09T13:15:15;5.30;;;4.10;;
840;SDS011;406;48.566;13.450;2023-05-09T13:17:42;4.20;;;3.80;;
840;SDS011;406;48.566;13.450;2023-05-09T13:20:09;4.20;;;3.80;;
840;SDS011;406;48.566;13.450;2023-05-09T13:22:36;4.47;;;4.07;;
840;SDS011;406;48.566;13.450;2023-05-09T13:25:02;4.70;;;3.50;;
840;SDS011;406;48.566;13.450;2023-05-09T13:27:30;4.03;;;3.73;;
840;SDS011;406;48.566;13.450;2023-05-09T13:29:57;4.77;;;4.10;;
840;SDS011;406;48.566;13.450;2023-05-09T13:32:23;8.27;;;3.80;;
840;SDS011;406;48.566;13.450;2023-05-09T13:34:50;7.53;;;3.90;;
840;SDS011;406;48.566;13.450;2023-05-09T13:37:17;4.17;;;3.87;;
840;SDS011;406;48.566;13.450;2023-05-09T13:39:44;3.73;;;3.27;;
840;SDS011;406;48.566;13.450;2023-05-09T13:42:10;4.47;;;4.07;;
840;SDS011;406;48.566;13.450;2023-05-09T13:44:37;3.70;;;3.40;;
840;SDS011;406;48.566;13.450;2023-05-09T13:47:03;4.27;;;3.77;;
840;SDS011;406;48.566;13.450;2023-05-09T13:49:33;4.77;;;4.03;;
840;SDS011;406;48.566;13.450;2023-05-09T13:52:00;4.23;;;3.87;;
840;SDS011;406;48.566;13.450;2023-05-09T13:54:26;4.27;;;3.80;;
840;SDS011;406;48.566;13.450;2023-05-09T13:56:54;3.50;;;3.20;;
840;SDS011;406;48.566;13.450;2023-05-09T13:59:21;4.53;;;3.70;;
840;SDS011;406;48.566;13.450;2023-05-09T14:01:47;4.67;;;3.47;;
840;SDS011;406;48.566;13.450;2023-05-09T14:04:14;5.33;;;3.23;;
840;SDS011;406;48.566;13.450;2023-05-09T14:06:41;4.40;;;2.90;;
840;SDS011;406;48.566;13.450;2023-05-09T14:09:13;3.30;;;3.00;;
840;SDS011;406;48.566;13.450;2023-05-09T14:11:41;4.33;;;3.23;;
840;SDS011;406;48.566;13.450;2023-05-09T14:14:07;3.43;;;3.13;;
840;SDS011;406;48.566;13.450;2023-05-09T14:16:34;4.00;;;2.27;;
840;SDS011;406;48.566;13.450;2023-05-09T14:19:00;4.00;;;2.63;;
840;SDS011;406;48.566;13.450;2023-05-09T14:21:27;3.90;;;2.90;;
840;SDS011;406;48.566;13.450;2023-05-09T14:23:54;4.80;;;2.70;;
840;SDS011;406;48.566;13.450;2023-05-09T14:26:21;3.77;;;3.37;;
840;SDS011;406;48.566;13.450;2023-05-09T14:28:47;2.90;;;2.60;;
840;SDS011;406;48.566;13.450;2023-05-09T14:31:14;3.77;;;2.70;;
840;SDS011;406;48.566;13.450;2023-05-09T14:33:40;3.10;;;2.70;;
840;SDS011;406;48.566;13.450;2023-05-09T14:36:07;5.17;;;2.80;;
840;SDS011;406;48.566;13.450;2023-05-09T14:38:34;4.67;;;3.53;;
840;SDS011;406;48.566;13.450;2023-05-09T14:41:02;7.93;;;3.67;;
840;SDS011;406;48.566;13.450;2023-05-09T14:43:28;2.97;;;2.60;;
840;SDS011;406;48.566;13.450;2023-05-09T14:45:55;3.80;;;3.00;;
840;SDS011;406;48.566;13.450;2023-05-09T14:48:22;3.10;;;2.80;;
840;SDS011;406;48.566;13.450;2023-05-09T14:50:49;3.20;;;2.20;;
840;SDS011;406;48.566;13.450;2023-05-09T14:53:18;3.33;;;2.93;;
840;SDS011;406;48.566;13.450;2023-05-09T14:55:45;2.73;;;2.50;;
840;SDS011;406;48.566;13.450;2023-05-09T14:58:11;2.70;;;2.30;;
840;SDS011;406;48.566;13.450;2023-05-09T15:00:38;3.60;;;2.40;;
840;SDS011;406;48.566;13.450;2023-05-09T15:03:05;3.33;;;3.03;;
840;SDS011;406;48.566;13.450;2023-05-09T15:05:31;3.23;;;2.30;;
840;SDS011;406;48.566;13.450;2023-05-09T15:07:58;3.00;;;1.90;;
840;SDS011;406;48.566;13.450;2023-05-09T15:10:24;2.40;;;2.10;;
840;SDS011;406;48.566;13.450;2023-05-09T15:12:52;5.30;;;2.83;;
840;SDS011;406;48.566;13.450;2023-05-09T15:15:21;9.43;;;3.30;;
840;SDS011;406;48.566;13.450;2023-05-09T15:17:51;2.50;;;2.30;;
840;SDS011;406;48.566;13.450;2023-05-09T15:20:18;3.73;;;1.80;;
840;SDS011;406;48.566;13.450;2023-05-09T15:22:45;2.10;;;1.90;;
840;SDS011;406;48.566;13.450;2023-05-09T15:25:13;2.97;;;2.77;;
840;SDS011;406;48.566;13.450;2023-05-09T15:27:40;2.23;;;2.10;;
840;SDS011;406;48.566;13.450;2023-05-09T15:30:07;2.27;;;2.07;;
840;SDS011;406;48.566;13.450;2023-05-09T15:32:37;2.20;;;1.83;;
840;SDS011;406;48.566;13.450;2023-05-09T15:35:05;3.20;;;2.40;;
840;SDS011;406;48.566;13.450;2023-05-09T15:37:32;2.63;;;2.37;;
840;SDS011;406;48.566;13.450;2023-05-09T15:40:01;2.80;;;2.27;;
840;SDS011;406;48.566;13.450;2023-05-09T15:42:27;2.63;;;2.43;;
840;SDS011;406;48.566;13.450;2023-05-09T15:44:54;2.70;;;2.47;;